sensor_id;sensor_type;location;lat;lon;timestamp;pressure;altitude;pressure_sealevel;temperature;humidity
32851;BME280;19202;48.992;8.390;2022-10-22T00:00:23;100007.72;;;17.26;89.78
32851;BME280;19202;48.992;8.390;2022-10-22T00:06:01;100004.59;;;17.20;91.01
32851;BME280;19202;48.992;8.390;2022-10-22T00:11:39;100005.66;;;17.17;90.94
32851;BME280;19202;48.992;8.390;2022-10-22T00:17:17;100031.19;;;17.09;89.95
32851;BME280;19202;48.992;8.390;2022-10-22T00:22:56;100049.06;;;17.08;90.53
32851;BME280;19202;48.992;8.390;2022-10-22T00:28:34;100066.00;;;16.95;91.49
32851;BME280;19202;48.992;8.390;2022-10-22T00:34:12;100063.06;;;16.85;92.02
32851;BME280;19202;48.992;8.390;2022-10-22T00:39:55;100052.78;;;16.79;93.05
32851;BME280;19202;48.992;8.390;2022-10-22T00:45:33;100050.53;;;16.73;93.25
32851;BME280;19202;48.992;8.390;2022-10-22T00:51:11;100053.00;;;16.76;93.45
32851;BME280;19202;48.992;8.390;2022-10-22T00:56:49;100035.50;;;16.84;93.34
32851;BME280;19202;48.992;8.390;2022-10-22T01:02:27;100033.16;;;16.80;93.62
32851;BME280;19202;48.992;8.390;2022-10-22T01:08:10;100035.59;;;16.83;93.44
32851;BME280;19202;48.992;8.390;2022-10-22T01:14:09;100035.69;;;16.81;93.46
32851;BME280;19202;48.992;8.390;2022-10-22T01:25:49;100047.84;;;16.73;92.84
32851;BME280;19202;48.992;8.390;2022-10-22T01:31:34;100054.63;;;16.64;93.47
32851;BME280;19202;48.992;8.390;2022-10-22T01:37:14;100095.94;;;16.73;93.22
32851;BME280;19202;48.992;8.390;2022-10-22T01:43:13;100139.56;;;16.59;95.42
32851;BME280;19202;48.992;8.390;2022-10-22T01:49:16;100149.88;;;16.51;96.98
32851;BME280;19202;48.992;8.390;2022-10-22T01:55:07;100146.91;;;16.42;98.47
32851;BME280;19202;48.992;8.390;2022-10-22T02:01:31;100140.59;;;16.43;99.06
32851;BME280;19202;48.992;8.390;2022-10-22T02:07:14;100109.31;;;16.59;97.79
32851;BME280;19202;48.992;8.390;2022-10-22T02:12:55;100105.41;;;16.50;98.87
32851;BME280;19202;48.992;8.390;2022-10-22T02:18:39;100110.28;;;16.44;100.00
32851;BME280;19202;48.992;8.390;2022-10-22T02:24:18;100073.69;;;16.32;100.00
32851;BME280;19202;48.992;8.390;2022-10-22T02:30:04;100073.09;;;16.27;100.00
32851;BME280;19202;48.992;8.390;2022-10-22T02:35:44;100042.56;;;16.31;100.00
32851;BME280;19202;48.992;8.390;2022-10-22T02:41:23;100054.00;;;16.33;100.00
32851;BME280;19202;48.992;8.390;2022-10-22T02:47:01;100046.00;;;16.33;100.00
32851;BME280;19202;48.992;8.390;2022-10-22T02:52:39;100043.91;;;16.38;100.00
32851;BME280;19202;48.992;8.390;2022-10-22T02:58:17;100057.44;;;16.35;100.00
32851;BME280;19202;48.992;8.390;2022-10-22T03:03:55;100071.56;;;16.37;100.00
32851;BME280;19202;48.992;8.390;2022-10-22T03:09:33;100010.78;;;16.40;100.00
32851;BME280;19202;48.992;8.390;2022-10-22T03:15:13;100041.44;;;16.35;100.00
32851;BME280;19202;48.992;8.390;2022-10-22T03:21:05;100090.09;;;16.26;100.00
32851;BME280;19202;48.992;8.390;2022-10-22T03:26:47;100074.25;;;16.23;100.00
32851;BME280;19202;48.992;8.390;2022-10-22T03:32:29;100070.81;;;16.21;100.00
32851;BME280;19202;48.992;8.390;2022-10-22T03:38:08;100087.78;;;16.20;100.00
32851;BME280;19202;48.992;8.390;2022-10-22T03:43:46;100082.91;;;16.12;100.00
32851;BME280;19202;48.992;8.390;2022-10-22T03:49:28;100096.47;;;16.09;100.00
32851;BME280;19202;48.992;8.390;2022-10-22T03:55:07;100096.19;;;16.14;100.00
32851;BME280;19202;48.992;8.390;2022-10-22T04:00:45;100115.31;;;16.06;100.00
32851;BME280;19202;48.992;8.390;2022-10-22T04:06:23;100137.16;;;15.98;100.00
32851;BME280;19202;48.992;8.390;2022-10-22T04:12:02;100143.81;;;15.91;100.00
32851;BME280;19202;48.992;8.390;2022-10-22T04:18:10;100155.03;;;15.82;100.00
32851;BME280;19202;48.992;8.390;2022-10-22T04:23:54;100153.34;;;15.81;100.00
32851;BME280;19202;48.992;8.390;2022-10-22T04:29:32;100154.88;;;15.85;100.00
32851;BME280;19202;48.992;8.390;2022-10-22T04:35:10;100149.91;;;15.79;100.00
32851;BME280;19202;48.992;8.390;2022-10-22T04:40:48;100148.75;;;15.69;100.00
32851;BME280;19202;48.992;8.390;2022-10-22T04:46:27;100153.88;;;15.72;100.00
32851;BME280;19202;48.992;8.390;2022-10-22T04:52:06;100155.41;;;15.76;100.00
32851;BME280;19202;48.992;8.390;2022-10-22T04:57:43;100164.19;;;15.78;100.00
32851;BME280;19202;48.992;8.390;2022-10-22T05:03:23;100162.09;;;15.83;100.00
32851;BME280;19202;48.992;8.390;2022-10-22T05:09:05;100170.13;;;15.83;100.00
32851;BME280;19202;48.992;8.390;2022-10-22T05:14:43;100176.00;;;15.88;100.00
32851;BME280;19202;48.992;8.390;2022-10-22T05:20:21;100173.63;;;15.84;100.00
32851;BME280;19202;48.992;8.390;2022-10-22T05:26:03;100183.44;;;15.83;100.00
32851;BME280;19202;48.992;8.390;2022-10-22T05:31:41;100197.22;;;15.76;100.00
32851;BME280;19202;48.992;8.390;2022-10-22T05:37:22;100208.00;;;15.74;100.00
32851;BME280;19202;48.992;8.390;2022-10-22T05:43:00;100214.44;;;15.70;100.00
32851;BME280;19202;48.992;8.390;2022-10-22T05:48:38;100220.81;;;15.68;100.00
32851;BME280;19202;48.992;8.390;2022-10-22T05:54:18;100232.25;;;15.70;100.00
32851;BME280;19202;48.992;8.390;2022-10-22T05:59:56;100238.38;;;15.72;100.00
32851;BME280;19202;48.992;8.390;2022-10-22T06:05:35;100242.09;;;15.69;100.00
32851;BME280;19202;48.992;8.390;2022-10-22T06:11:16;100241.47;;;15.64;100.00
32851;BME280;19202;48.992;8.390;2022-10-22T06:16:54;100248.38;;;15.68;100.00
32851;BME280;19202;48.992;8.390;2022-10-22T06:22:35;100258.16;;;15.68;100.00
32851;BME280;19202;48.992;8.390;2022-10-22T06:28:13;100257.13;;;15.70;100.00
32851;BME280;19202;48.992;8.390;2022-10-22T06:33:51;100270.13;;;15.76;100.00
32851;BME280;19202;48.992;8.390;2022-10-22T06:39:29;100276.56;;;15.72;100.00
32851;BME280;19202;48.992;8.390;2022-10-22T06:45:08;100275.03;;;15.68;100.00
32851;BME280;19202;48.992;8.390;2022-10-22T06:50:46;100281.75;;;15.75;100.00
32851;BME280;19202;48.992;8.390;2022-10-22T06:56:25;100295.66;;;15.80;100.00
32851;BME280;19202;48.992;8.390;2022-10-22T07:02:04;100306.75;;;15.88;100.00
32851;BME280;19202;48.992;8.390;2022-10-22T07:07:41;100313.47;;;15.95;100.00
32851;BME280;19202;48.992;8.390;2022-10-22T07:13:19;100310.81;;;15.95;100.00
32851;BME280;19202;48.992;8.390;2022-10-22T07:19:06;100326.25;;;16.04;100.00
32851;BME280;19202;48.992;8.390;2022-10-22T07:24:45;100334.69;;;16.13;100.00
32851;BME280;19202;48.992;8.390;2022-10-22T07:30:24;100344.47;;;16.28;100.00
32851;BME280;19202;48.992;8.390;2022-10-22T07:36:07;100346.50;;;16.38;100.00
32851;BME280;19202;48.992;8.390;2022-10-22T07:41:46;100339.03;;;16.59;100.00
32851;BME280;19202;48.992;8.390;2022-10-22T07:47:25;100346.34;;;16.85;100.00
32851;BME280;19202;48.992;8.390;2022-10-22T07:53:04;100343.94;;;17.09;100.00
32851;BME280;19202;48.992;8.390;2022-10-22T07:58:42;100354.63;;;17.37;99.51
32851;BME280;19202;48.992;8.390;2022-10-22T08:04:20;100355.88;;;17.59;98.43
32851;BME280;19202;48.992;8.390;2022-10-22T08:09:58;100359.41;;;18.01;97.09
32851;BME280;19202;48.992;8.390;2022-10-22T08:15:36;100363.34;;;18.48;94.55
32851;BME280;19202;48.992;8.390;2022-10-22T08:21:14;100358.13;;;19.10;92.21
32851;BME280;19202;48.992;8.390;2022-10-22T08:26:54;100368.38;;;19.66;85.67
32851;BME280;19202;48.992;8.390;2022-10-22T08:32:32;100381.84;;;19.90;84.23
32851;BME280;19202;48.992;8.390;2022-10-22T08:38:10;100390.94;;;20.00;82.70
32851;BME280;19202;48.992;8.390;2022-10-22T08:50:02;100391.84;;;20.59;80.62
32851;BME280;19202;48.992;8.390;2022-10-22T08:55:40;100399.50;;;20.76;79.03
32851;BME280;19202;48.992;8.390;2022-10-22T09:01:33;100395.94;;;21.21;75.28
32851;BME280;19202;48.992;8.390;2022-10-22T09:07:12;100407.34;;;21.58;72.03
32851;BME280;19202;48.992;8.390;2022-10-22T09:12:50;100418.13;;;21.58;72.86
32851;BME280;19202;48.992;8.390;2022-10-22T09:18:35;100423.28;;;21.61;72.58
32851;BME280;19202;48.992;8.390;2022-10-22T09:24:34;100431.56;;;22.13;70.23
32851;BME280;19202;48.992;8.390;2022-10-22T09:30:19;100432.69;;;23.06;67.62
32851;BME280;19202;48.992;8.390;2022-10-22T09:36:02;100431.78;;;23.67;66.10
32851;BME280;19202;48.992;8.390;2022-10-22T09:41:42;100441.00;;;24.35;61.15
32851;BME280;19202;48.992;8.390;2022-10-22T09:47:40;100442.72;;;24.55;59.90
32851;BME280;19202;48.992;8.390;2022-10-22T09:58:56;100433.88;;;25.10;57.39
32851;BME280;19202;48.992;8.390;2022-10-22T10:04:40;100445.91;;;25.63;56.67
32851;BME280;19202;48.992;8.390;2022-10-22T10:10:46;100444.88;;;26.11;52.39
32851;BME280;19202;48.992;8.390;2022-10-22T10:28:41;100442.66;;;27.55;47.52
32851;BME280;19202;48.992;8.390;2022-10-22T10:46:01;100449.81;;;28.57;46.44
32851;BME280;19202;48.992;8.390;2022-10-22T10:52:04;100453.53;;;29.69;41.17
32851;BME280;19202;48.992;8.390;2022-10-22T11:11:07;100453.03;;;33.15;33.83
32851;BME280;19202;48.992;8.390;2022-10-22T11:16:52;100441.69;;;32.76;36.51
32851;BME280;19202;48.992;8.390;2022-10-22T11:22:40;100440.75;;;33.11;33.94
32851;BME280;19202;48.992;8.390;2022-10-22T11:34:14;100441.72;;;34.08;31.96
32851;BME280;19202;48.992;8.390;2022-10-22T11:40:02;100437.16;;;35.66;29.84
32851;BME280;19202;48.992;8.390;2022-10-22T11:45:41;100439.81;;;34.62;30.60
32851;BME280;19202;48.992;8.390;2022-10-22T11:51:36;100431.44;;;33.88;32.17
32851;BME280;19202;48.992;8.390;2022-10-22T12:03:17;100431.13;;;31.79;35.83
32851;BME280;19202;48.992;8.390;2022-10-22T12:08:59;100421.03;;;31.64;36.65
32851;BME280;19202;48.992;8.390;2022-10-22T12:14:58;100423.69;;;31.21;36.15
32851;BME280;19202;48.992;8.390;2022-10-22T12:20:36;100403.16;;;31.25;36.45
32851;BME280;19202;48.992;8.390;2022-10-22T12:26:29;100418.06;;;31.37;34.87
32851;BME280;19202;48.992;8.390;2022-10-22T12:32:12;100397.06;;;31.52;33.52
32851;BME280;19202;48.992;8.390;2022-10-22T12:37:53;100388.56;;;31.76;33.92
32851;BME280;19202;48.992;8.390;2022-10-22T12:43:31;100389.72;;;31.67;33.33
32851;BME280;19202;48.992;8.390;2022-10-22T12:49:16;100390.38;;;31.40;34.30
32851;BME280;19202;48.992;8.390;2022-10-22T12:54:54;100389.78;;;31.88;33.39
32851;BME280;19202;48.992;8.390;2022-10-22T13:00:34;100382.69;;;31.35;33.93
32851;BME280;19202;48.992;8.390;2022-10-22T13:12:03;100387.53;;;32.06;33.57
32851;BME280;19202;48.992;8.390;2022-10-22T13:17:41;100379.97;;;32.08;32.83
32851;BME280;19202;48.992;8.390;2022-10-22T13:23:22;100385.63;;;32.21;33.12
32851;BME280;19202;48.992;8.390;2022-10-22T13:29:02;100370.34;;;32.12;33.20
32851;BME280;19202;48.992;8.390;2022-10-22T13:34:46;100368.09;;;32.01;32.47
32851;BME280;19202;48.992;8.390;2022-10-22T13:40:24;100366.09;;;32.10;32.88
32851;BME280;19202;48.992;8.390;2022-10-22T13:46:04;100371.19;;;32.49;30.54
32851;BME280;19202;48.992;8.390;2022-10-22T13:51:42;100366.22;;;33.01;31.00
32851;BME280;19202;48.992;8.390;2022-10-22T13:57:21;100359.75;;;33.36;29.80
32851;BME280;19202;48.992;8.390;2022-10-22T14:02:59;100364.03;;;32.96;30.04
32851;BME280;19202;48.992;8.390;2022-10-22T14:08:37;100368.44;;;33.12;29.32
32851;BME280;19202;48.992;8.390;2022-10-22T14:14:14;100357.38;;;33.54;29.42
32851;BME280;19202;48.992;8.390;2022-10-22T14:19:53;100356.25;;;33.89;28.51
32851;BME280;19202;48.992;8.390;2022-10-22T14:25:32;100354.06;;;34.13;28.15
32851;BME280;19202;48.992;8.390;2022-10-22T14:31:11;100362.16;;;34.34;28.17
32851;BME280;19202;48.992;8.390;2022-10-22T14:36:48;100355.19;;;34.38;28.25
32851;BME280;19202;48.992;8.390;2022-10-22T14:42:27;100360.22;;;34.15;28.14
32851;BME280;19202;48.992;8.390;2022-10-22T14:48:07;100364.13;;;33.58;28.23
32851;BME280;19202;48.992;8.390;2022-10-22T14:53:46;100351.81;;;33.82;28.33
32851;BME280;19202;48.992;8.390;2022-10-22T14:59:24;100364.03;;;33.79;28.37
32851;BME280;19202;48.992;8.390;2022-10-22T15:05:04;100353.69;;;33.81;28.48
32851;BME280;19202;48.992;8.390;2022-10-22T15:10:45;100365.09;;;33.78;28.77
32851;BME280;19202;48.992;8.390;2022-10-22T15:16:24;100360.97;;;33.61;28.89
32851;BME280;19202;48.992;8.390;2022-10-22T15:22:02;100359.06;;;32.79;29.57
32851;BME280;19202;48.992;8.390;2022-10-22T15:27:45;100360.91;;;32.00;30.34
32851;BME280;19202;48.992;8.390;2022-10-22T15:33:27;100351.34;;;30.94;32.23
32851;BME280;19202;48.992;8.390;2022-10-22T15:39:08;100357.66;;;29.96;33.25
32851;BME280;19202;48.992;8.390;2022-10-22T15:44:47;100358.91;;;29.14;35.05
32851;BME280;19202;48.992;8.390;2022-10-22T15:50:26;100353.25;;;28.43;36.14
32851;BME280;19202;48.992;8.390;2022-10-22T15:56:06;100354.44;;;27.83;38.20
32851;BME280;19202;48.992;8.390;2022-10-22T16:01:46;100364.50;;;27.23;39.68
32851;BME280;19202;48.992;8.390;2022-10-22T16:07:25;100354.16;;;26.58;41.38
32851;BME280;19202;48.992;8.390;2022-10-22T16:13:03;100361.97;;;25.98;43.06
32851;BME280;19202;48.992;8.390;2022-10-22T16:18:41;100361.69;;;25.47;44.59
32851;BME280;19202;48.992;8.390;2022-10-22T16:24:20;100364.66;;;24.98;46.04
32851;BME280;19202;48.992;8.390;2022-10-22T16:29:58;100366.13;;;24.54;47.77
32851;BME280;19202;48.992;8.390;2022-10-22T16:35:40;100367.22;;;24.13;49.99
32851;BME280;19202;48.992;8.390;2022-10-22T16:41:20;100364.16;;;23.78;50.94
32851;BME280;19202;48.992;8.390;2022-10-22T16:47:08;100374.53;;;23.43;53.42
32851;BME280;19202;48.992;8.390;2022-10-22T16:52:49;100380.88;;;23.12;53.13
32851;BME280;19202;48.992;8.390;2022-10-22T16:58:27;100395.06;;;22.84;54.47
32851;BME280;19202;48.992;8.390;2022-10-22T17:04:05;100394.66;;;22.56;55.57
32851;BME280;19202;48.992;8.390;2022-10-22T17:09:43;100401.97;;;22.34;56.35
32851;BME280;19202;48.992;8.390;2022-10-22T17:15:21;100404.50;;;22.04;57.03
32851;BME280;19202;48.992;8.390;2022-10-22T17:20:59;100414.34;;;21.82;57.96
32851;BME280;19202;48.992;8.390;2022-10-22T17:26:36;100416.53;;;21.66;58.41
32851;BME280;19202;48.992;8.390;2022-10-22T17:32:14;100418.88;;;21.49;59.09
32851;BME280;19202;48.992;8.390;2022-10-22T17:37:52;100415.66;;;21.33;59.82
32851;BME280;19202;48.992;8.390;2022-10-22T17:43:34;100423.72;;;21.11;61.71
32851;BME280;19202;48.992;8.390;2022-10-22T17:49:17;100426.47;;;20.98;61.95
32851;BME280;19202;48.992;8.390;2022-10-22T17:54:55;100425.19;;;20.80;61.89
32851;BME280;19202;48.992;8.390;2022-10-22T18:00:34;100416.22;;;20.68;62.70
32851;BME280;19202;48.992;8.390;2022-10-22T18:06:14;100411.78;;;20.56;62.76
32851;BME280;19202;48.992;8.390;2022-10-22T18:11:55;100418.09;;;20.44;62.89
32851;BME280;19202;48.992;8.390;2022-10-22T18:17:33;100409.00;;;20.34;63.48
32851;BME280;19202;48.992;8.390;2022-10-22T18:23:11;100407.31;;;20.20;64.75
32851;BME280;19202;48.992;8.390;2022-10-22T18:28:50;100415.41;;;20.08;64.91
32851;BME280;19202;48.992;8.390;2022-10-22T18:34:29;100403.19;;;20.04;64.99
32851;BME280;19202;48.992;8.390;2022-10-22T18:40:11;100393.97;;;19.95;64.90
32851;BME280;19202;48.992;8.390;2022-10-22T18:45:48;100389.25;;;19.86;65.66
32851;BME280;19202;48.992;8.390;2022-10-22T18:51:28;100395.31;;;19.77;65.83
32851;BME280;19202;48.992;8.390;2022-10-22T18:57:09;100400.25;;;19.71;66.26
32851;BME280;19202;48.992;8.390;2022-10-22T19:02:47;100403.50;;;19.63;66.13
32851;BME280;19202;48.992;8.390;2022-10-22T19:08:25;100399.66;;;19.55;66.62
32851;BME280;19202;48.992;8.390;2022-10-22T19:14:04;100399.66;;;19.42;66.48
32851;BME280;19202;48.992;8.390;2022-10-22T19:19:43;100396.84;;;19.31;67.01
32851;BME280;19202;48.992;8.390;2022-10-22T19:25:21;100391.28;;;19.21;67.76
32851;BME280;19202;48.992;8.390;2022-10-22T19:30:59;100390.97;;;19.13;67.74
32851;BME280;19202;48.992;8.390;2022-10-22T19:36:37;100383.56;;;19.04;68.48
32851;BME280;19202;48.992;8.390;2022-10-22T19:42:15;100388.81;;;18.93;68.97
32851;BME280;19202;48.992;8.390;2022-10-22T19:47:53;100393.63;;;18.88;69.51
32851;BME280;19202;48.992;8.390;2022-10-22T19:54:02;100392.88;;;18.86;69.97
32851;BME280;19202;48.992;8.390;2022-10-22T19:59:46;100389.56;;;18.83;69.30
32851;BME280;19202;48.992;8.390;2022-10-22T20:05:24;100381.81;;;18.78;69.42
32851;BME280;19202;48.992;8.390;2022-10-22T20:11:07;100390.16;;;18.74;69.14
32851;BME280;19202;48.992;8.390;2022-10-22T20:16:45;100385.22;;;18.68;69.24
32851;BME280;19202;48.992;8.390;2022-10-22T20:22:23;100399.78;;;18.64;69.34
32851;BME280;19202;48.992;8.390;2022-10-22T20:28:01;100402.69;;;18.61;69.66
32851;BME280;19202;48.992;8.390;2022-10-22T20:33:39;100394.03;;;18.57;69.34
32851;BME280;19202;48.992;8.390;2022-10-22T20:39:17;100377.38;;;18.52;69.02
32851;BME280;19202;48.992;8.390;2022-10-22T20:44:55;100372.03;;;18.52;68.82
32851;BME280;19202;48.992;8.390;2022-10-22T20:50:33;100381.34;;;18.46;68.81
32851;BME280;19202;48.992;8.390;2022-10-22T20:56:12;100368.44;;;18.39;69.17
32851;BME280;19202;48.992;8.390;2022-10-22T21:01:51;100371.41;;;18.34;69.00
32851;BME280;19202;48.992;8.390;2022-10-22T21:07:30;100371.81;;;18.28;68.89
32851;BME280;19202;48.992;8.390;2022-10-22T21:13:08;100375.78;;;18.23;69.22
32851;BME280;19202;48.992;8.390;2022-10-22T21:18:47;100361.94;;;18.16;69.88
32851;BME280;19202;48.992;8.390;2022-10-22T21:24:25;100365.88;;;18.11;70.12
32851;BME280;19202;48.992;8.390;2022-10-22T21:30:09;100368.09;;;18.04;70.23
32851;BME280;19202;48.992;8.390;2022-10-22T21:35:55;100361.41;;;17.97;71.33
32851;BME280;19202;48.992;8.390;2022-10-22T21:41:35;100368.03;;;17.92;70.87
32851;BME280;19202;48.992;8.390;2022-10-22T21:47:13;100369.19;;;17.88;71.01
32851;BME280;19202;48.992;8.390;2022-10-22T21:52:51;100369.88;;;17.77;71.72
32851;BME280;19202;48.992;8.390;2022-10-22T21:58:29;100383.75;;;17.69;71.92
32851;BME280;19202;48.992;8.390;2022-10-22T22:04:07;100382.47;;;17.62;72.64
32851;BME280;19202;48.992;8.390;2022-10-22T22:09:51;100388.47;;;17.52;73.37
32851;BME280;19202;48.992;8.390;2022-10-22T22:15:29;100383.25;;;17.50;72.87
32851;BME280;19202;48.992;8.390;2022-10-22T22:21:12;100379.06;;;17.45;73.44
32851;BME280;19202;48.992;8.390;2022-10-22T22:26:50;100372.19;;;17.41;73.23
32851;BME280;19202;48.992;8.390;2022-10-22T22:32:27;100368.75;;;17.39;73.55
32851;BME280;19202;48.992;8.390;2022-10-22T22:38:05;100373.66;;;17.32;73.94
32851;BME280;19202;48.992;8.390;2022-10-22T22:43:43;100364.28;;;17.25;74.39
32851;BME280;19202;48.992;8.390;2022-10-22T22:49:21;100354.25;;;17.15;75.40
32851;BME280;19202;48.992;8.390;2022-10-22T22:54:59;100360.97;;;17.08;75.40
32851;BME280;19202;48.992;8.390;2022-10-22T23:00:37;100360.94;;;16.94;76.38
32851;BME280;19202;48.992;8.390;2022-10-22T23:06:15;100349.28;;;16.95;75.42
32851;BME280;19202;48.992;8.390;2022-10-22T23:11:53;100363.13;;;16.73;77.61
32851;BME280;19202;48.992;8.390;2022-10-22T23:17:30;100359.31;;;16.77;77.09
32851;BME280;19202;48.992;8.390;2022-10-22T23:23:08;100345.84;;;16.78;77.37
32851;BME280;19202;48.992;8.390;2022-10-22T23:28:46;100363.59;;;16.79;77.58
32851;BME280;19202;48.992;8.390;2022-10-22T23:34:25;100365.22;;;16.68;77.70
32851;BME280;19202;48.992;8.390;2022-10-22T23:40:03;100349.38;;;16.65;76.86
32851;BME280;19202;48.992;8.390;2022-10-22T23:45:41;100342.47;;;16.61;77.19
32851;BME280;19202;48.992;8.390;2022-10-22T23:51:19;100350.69;;;16.58;77.01
32851;BME280;19202;48.992;8.390;2022-10-22T23:56:58;100340.28;;;16.53;77.06
